createdAt,value
2023-02-24T00:02:22.227Z,18.85
2023-02-24T00:07:24.236Z,19.23
2023-02-24T00:12:26.237Z,18.65
2023-02-24T00:17:30.722Z,19.00
2023-02-24T00:22:32.773Z,18.90
2023-02-24T00:27:35.447Z,18.80
2023-02-24T00:32:37.743Z,19.38
2023-02-24T00:37:39.848Z,19.33
2023-02-24T00:42:42.898Z,21.33
2023-02-24T00:47:44.982Z,20.60
2023-02-24T00:52:48.679Z,18.92
2023-02-24T00:57:51.175Z,19.52
2023-02-24T01:02:53.207Z,22.45
2023-02-24T01:07:55.269Z,22.58
2023-02-24T01:12:57.342Z,19.50
2023-02-24T01:17:59.408Z,16.80
2023-02-24T01:23:03.618Z,17.45
2023-02-24T01:28:05.834Z,21.20
2023-02-24T01:33:08.438Z,23.45
2023-02-24T01:43:14.021Z,21.90
2023-02-24T01:48:17.560Z,23.30
2023-02-24T01:53:20.226Z,22.45
2023-02-24T01:58:33.993Z,24.08
2023-02-24T02:03:42.168Z,20.60
2023-02-24T02:08:47.673Z,28.27
2023-02-24T02:13:52.021Z,11.02
2023-02-24T02:19:09.770Z,16.17
2023-02-24T02:24:38.047Z,21.95
2023-02-24T02:30:13.933Z,24.27
2023-02-24T02:35:46.797Z,25.83
2023-02-24T02:45:59.880Z,26.33
2023-02-24T02:51:11.590Z,23.38
2023-02-24T02:56:24.501Z,22.00
2023-02-24T03:01:34.171Z,25.38
2023-02-24T03:06:48.047Z,15.90
2023-02-24T03:11:56.236Z,25.00
2023-02-24T03:16:59.814Z,25.23
2023-02-24T03:22:36.445Z,16.92
2023-02-24T03:27:44.788Z,16.48
2023-02-24T03:32:56.300Z,26.73
2023-02-24T03:37:59.856Z,23.88
2023-02-24T03:43:08.533Z,15.82
2023-02-24T03:48:14.970Z,19.13
2023-02-24T03:53:50.104Z,20.38
2023-02-24T03:59:01.626Z,23.67
2023-02-24T04:04:33.598Z,16.48
2023-02-24T04:09:57.927Z,21.63
2023-02-24T04:15:26.508Z,16.17
2023-02-24T04:20:33.314Z,24.77
2023-02-24T04:25:36.140Z,23.88
2023-02-24T04:30:48.714Z,23.65
2023-02-24T04:35:51.599Z,24.02
2023-02-24T04:40:53.774Z,23.33
2023-02-24T04:45:56.428Z,16.42
2023-02-24T04:56:09.439Z,24.33
2023-02-24T05:01:11.890Z,23.70
2023-02-24T05:06:16.847Z,26.40
2023-02-24T05:11:19.686Z,26.40
2023-02-24T05:16:22.536Z,23.05
2023-02-24T05:26:42.064Z,23.83
2023-02-24T05:31:44.400Z,24.88
2023-02-24T05:36:47.322Z,30.85
2023-02-24T05:41:50.619Z,25.52
2023-02-24T05:47:00.879Z,20.65
2023-02-24T05:52:10.354Z,21.40
2023-02-24T05:57:21.474Z,20.55
2023-02-24T06:02:28.014Z,23.17
2023-02-24T06:07:34.746Z,23.35
2023-02-24T06:12:40.157Z,14.57
2023-02-24T06:17:42.127Z,15.77
2023-02-24T06:22:44.201Z,13.95
2023-02-24T06:27:46.295Z,16.48
2023-02-24T06:32:49.485Z,14.43
2023-02-24T06:37:51.587Z,14.88
2023-02-24T06:42:57.395Z,11.82
2023-02-24T06:47:59.365Z,13.93
2023-02-24T06:53:03.108Z,13.77
2023-02-24T06:58:05.097Z,14.07
2023-02-24T07:03:17.066Z,15.95
2023-02-24T07:08:23.226Z,16.13
2023-02-24T07:13:29.015Z,10.68
2023-02-24T07:18:31.307Z,12.98
2023-02-24T07:23:33.343Z,13.70
2023-02-24T07:28:35.386Z,14.15
2023-02-24T07:33:39.193Z,13.00
2023-02-24T07:38:43.111Z,13.75
2023-02-24T07:43:46.494Z,13.00
2023-02-24T07:48:48.534Z,14.30
2023-02-24T07:53:59.320Z,12.77
2023-02-24T07:59:08.363Z,15.60
2023-02-24T08:04:13.007Z,14.45
2023-02-24T08:09:42.649Z,13.48
2023-02-24T08:14:51.242Z,5.40
2023-02-24T08:20:21.351Z,12.30
2023-02-24T08:25:36.065Z,9.43
2023-02-24T08:30:46.776Z,11.77
2023-02-24T08:36:01.562Z,11.52
2023-02-24T08:41:05.254Z,10.40
2023-02-24T08:46:21.608Z,11.45
2023-02-24T08:51:29.161Z,9.05
2023-02-24T08:56:35.235Z,6.63
2023-02-24T09:01:40.554Z,7.18
2023-02-24T09:07:10.843Z,6.32
2023-02-24T09:12:29.144Z,9.75
2023-02-24T09:17:41.512Z,9.40
2023-02-24T09:22:57.563Z,10.77
2023-02-24T09:28:17.656Z,8.13
2023-02-24T09:33:37.483Z,8.77
2023-02-24T09:39:00.100Z,4.25
2023-02-24T09:44:08.023Z,9.23
2023-02-24T09:49:17.817Z,9.63
2023-02-24T09:54:25.029Z,7.90
2023-02-24T09:59:36.641Z,7.63
2023-02-24T10:05:07.647Z,9.60
2023-02-24T10:10:39.588Z,10.70
2023-02-24T10:15:58.801Z,6.93
2023-02-24T10:21:30.985Z,5.82
2023-02-24T10:27:00.659Z,6.53
2023-02-24T10:32:24.260Z,13.93
2023-02-24T10:37:29.701Z,10.82
2023-02-24T10:42:34.664Z,9.63
2023-02-24T10:47:36.675Z,5.50
2023-02-24T10:53:06.755Z,10.27
2023-02-24T10:58:22.929Z,7.25
2023-02-24T11:03:41.910Z,7.38
2023-02-24T11:08:54.959Z,9.15
2023-02-24T11:14:21.146Z,7.18
2023-02-24T11:19:23.258Z,9.13
2023-02-24T11:24:26.042Z,6.18
2023-02-24T11:30:02.032Z,4.70
2023-02-24T11:35:12.638Z,5.13
2023-02-24T11:40:24.100Z,3.90
2023-02-24T11:45:29.794Z,5.90
2023-02-24T11:51:04.557Z,4.15
2023-02-24T11:56:28.230Z,3.38
2023-02-24T12:01:37.910Z,2.90
2023-02-24T12:06:48.775Z,4.35
2023-02-24T12:12:18.128Z,3.47
2023-02-24T12:17:37.164Z,4.05
2023-02-24T12:22:57.708Z,3.50
2023-02-24T12:33:31.991Z,5.63
2023-02-24T12:39:07.189Z,3.30
2023-02-24T12:44:27.145Z,4.03
2023-02-24T12:49:54.623Z,5.80
2023-02-24T12:55:09.392Z,4.20
2023-02-24T13:00:22.015Z,6.07
2023-02-24T13:05:44.283Z,4.25
2023-02-24T13:11:16.308Z,4.50
2023-02-24T13:16:30.105Z,4.40
2023-02-24T13:21:33.987Z,3.63
2023-02-24T13:26:36.088Z,5.90
2023-02-24T13:31:50.735Z,5.13
2023-02-24T13:36:53.167Z,3.63
2023-02-24T13:42:20.621Z,6.10
2023-02-24T13:47:43.937Z,4.03
2023-02-24T13:53:09.316Z,5.57
2023-02-24T13:58:35.803Z,5.00
2023-02-24T14:03:41.610Z,3.22
2023-02-24T14:08:55.911Z,2.80
2023-02-24T14:13:59.474Z,4.30
2023-02-24T14:19:03.420Z,3.80
2023-02-24T14:24:13.693Z,4.00
2023-02-24T14:29:23.252Z,4.25
2023-02-24T14:34:28.337Z,3.92
2023-02-24T14:39:32.928Z,4.38
2023-02-24T14:44:41.983Z,5.28
2023-02-24T14:50:03.477Z,5.13
2023-02-24T14:55:19.080Z,4.40
2023-02-24T15:00:25.862Z,9.55
2023-02-24T15:05:28.475Z,4.45
2023-02-24T15:10:32.302Z,4.93
2023-02-24T15:15:39.596Z,6.32
2023-02-24T15:20:42.023Z,8.27
2023-02-24T15:25:46.924Z,4.60
2023-02-24T15:31:16.895Z,5.85
2023-02-24T15:36:22.867Z,8.63
2023-02-24T15:41:26.049Z,4.18
2023-02-24T15:46:34.776Z,4.78
2023-02-24T15:51:46.675Z,4.97
2023-02-24T15:56:49.431Z,5.10
2023-02-24T16:01:54.908Z,6.50
2023-02-24T16:06:58.614Z,6.88
2023-02-24T16:12:02.946Z,5.85
2023-02-24T16:17:09.663Z,6.30
2023-02-24T16:22:12.157Z,6.50
2023-02-24T16:27:17.457Z,5.88
2023-02-24T16:32:22.518Z,3.92
2023-02-24T16:37:29.596Z,4.38
2023-02-24T16:42:32.177Z,6.13
2023-02-24T16:47:35.688Z,4.93
2023-02-24T16:52:38.078Z,3.13
2023-02-24T16:57:41.205Z,6.97
2023-02-24T17:02:45.679Z,5.80
2023-02-24T17:07:50.556Z,6.43
2023-02-24T17:12:53.282Z,5.40
2023-02-24T17:22:58.610Z,7.47
2023-02-24T17:33:03.541Z,6.50
2023-02-24T17:38:15.826Z,7.30
2023-02-24T17:43:18.474Z,5.85
2023-02-24T17:48:22.840Z,6.18
2023-02-24T17:53:28.422Z,6.43
2023-02-24T17:58:31.808Z,7.85
2023-02-24T18:03:36.605Z,8.57
2023-02-24T18:08:40.831Z,6.30
2023-02-24T18:13:44.330Z,2.30
2023-02-24T18:18:47.663Z,6.07
2023-02-24T18:23:50.603Z,4.65
2023-02-24T18:33:58.485Z,4.82
2023-02-24T18:39:09.138Z,6.65
2023-02-24T18:44:12.789Z,4.97
2023-02-24T18:49:15.748Z,5.13
2023-02-24T18:54:23.849Z,7.82
2023-02-24T18:59:26.974Z,6.85
2023-02-24T19:04:29.745Z,3.78
2023-02-24T19:09:34.294Z,5.32
2023-02-24T19:14:38.036Z,2.50
2023-02-24T19:19:41.106Z,4.72
2023-02-24T19:24:44.354Z,6.00
2023-02-24T19:29:47.474Z,5.80
2023-02-24T19:34:51.628Z,4.45
2023-02-24T19:39:55.892Z,5.53
2023-02-24T19:45:00.592Z,1.88
2023-02-24T19:50:03.599Z,5.03
2023-02-24T19:55:08.990Z,4.80
2023-02-24T20:00:13.172Z,5.60
2023-02-24T20:05:18.967Z,3.78
2023-02-24T20:10:22.128Z,8.30
2023-02-24T20:15:26.092Z,7.10
2023-02-24T20:20:29.381Z,7.25
2023-02-24T20:25:32.164Z,5.40
2023-02-24T20:30:37.341Z,6.40
2023-02-24T20:35:42.041Z,3.58
2023-02-24T20:40:46.169Z,7.60
2023-02-24T20:45:48.662Z,7.03
2023-02-24T20:50:51.917Z,4.85
2023-02-24T20:56:03.965Z,6.60
2023-02-24T21:01:08.896Z,6.53
2023-02-24T21:06:13.828Z,6.68
2023-02-24T21:11:16.892Z,4.55
2023-02-24T21:16:21.354Z,7.10
2023-02-24T21:21:24.013Z,8.82
2023-02-24T21:26:27.258Z,3.65
2023-02-24T21:31:31.224Z,3.22
2023-02-24T21:36:34.147Z,8.30
2023-02-24T21:46:38.729Z,6.90
2023-02-24T21:51:42.386Z,2.97
2023-02-24T21:56:44.798Z,6.15
2023-02-24T22:01:47.582Z,2.78
2023-02-24T22:11:52.091Z,7.88
2023-02-24T22:16:54.122Z,9.30
2023-02-24T22:21:59.318Z,5.53
2023-02-24T22:27:01.439Z,6.03
2023-02-24T22:32:05.356Z,3.60
2023-02-24T22:37:07.939Z,3.58
2023-02-24T22:42:10.031Z,4.72
2023-02-24T22:47:12.187Z,2.90
2023-02-24T22:52:17.033Z,3.00
2023-02-24T22:57:19.113Z,6.03
2023-02-24T23:02:21.156Z,5.57
2023-02-24T23:07:23.220Z,3.13
2023-02-24T23:12:27.269Z,2.25
2023-02-24T23:17:29.345Z,4.80
2023-02-24T23:22:31.443Z,7.32
2023-02-24T23:27:33.496Z,3.97
2023-02-24T23:32:36.991Z,8.95
2023-02-24T23:37:40.254Z,6.00
2023-02-24T23:42:43.010Z,7.22
2023-02-24T23:47:45.170Z,7.45
2023-02-24T23:52:47.476Z,7.13
2023-02-24T23:57:49.529Z,4.57
